Sarasota-Bradenton International Airport

Airport
ICAO code: 
KSRQ
Summary
ICAO Region: 
NAM
Territory: 
Location: 
Sarasota / Bradenton, Florida,
Coordinates: 
Aerial View: 
27° 23' 43.598" N, 82° 33' 15.8" W
Metar
Observation
KSRQ 020953Z AUTO 03004KT 10SM CLR 16/14 A3010 RMK AO2 SLP192 T01560144
Station
Sarasota / Bradenton, Sarasota-Bradenton International Airport
Date/Time
2021-12-02 09:53:00
Wind direction
30°
Wind speed
04 kts
Lowest cloud amount
n/a
Temperature
15.6°C
Dew point
14.4°C
Humidity
92%
Weather condition
n/a

Description

Sarasota–Bradenton International Airport is a public use airport in Sarasota County (terminal) and Manatee County (airfield). It is located 6 km north of the central business district of Sarasota and 9 km south of Bradenton.

Climatology

Humid “subtropical” climate (Köppen climate classification Cfa) - characterized by hot, humid summers and cool winters. Significant amounts of precipitation occur in all seasons in most areas.

Runways

Designator Length Width Surface Rops
4/22 1527 46 ASP Yes/Yes
14/32 2896 46 ASP Yes/Yes
Airport map: 
Aerial View: 

SKYbrary Partners:

Safety knowledge contributed by: